sensor_id;sensor_type;location;lat;lon;timestamp;temperature;humidity
49465;DHT22;35358;49.342;8.802;2022-08-01T00:00:06;22.30;99.90
49465;DHT22;35358;49.342;8.802;2022-08-01T00:02:32;22.30;99.90
49465;DHT22;35358;49.342;8.802;2022-08-01T00:04:59;22.20;99.90
49465;DHT22;35358;49.342;8.802;2022-08-01T00:07:30;22.20;99.90
49465;DHT22;35358;49.342;8.802;2022-08-01T00:09:58;22.10;99.90
49465;DHT22;35358;49.342;8.802;2022-08-01T00:12:23;21.90;99.90
49465;DHT22;35358;49.342;8.802;2022-08-01T00:14:49;21.60;99.90
49465;DHT22;35358;49.342;8.802;2022-08-01T00:17:15;21.60;99.90
49465;DHT22;35358;49.342;8.802;2022-08-01T00:19:40;21.60;99.90
49465;DHT22;35358;49.342;8.802;2022-08-01T00:22:06;21.60;99.90
49465;DHT22;35358;49.342;8.802;2022-08-01T00:24:34;21.50;99.90
49465;DHT22;35358;49.342;8.802;2022-08-01T00:27:00;21.50;99.90
49465;DHT22;35358;49.342;8.802;2022-08-01T00:29:25;21.50;99.90
49465;DHT22;35358;49.342;8.802;2022-08-01T00:31:51;21.40;99.90
49465;DHT22;35358;49.342;8.802;2022-08-01T00:34:19;21.10;99.90
49465;DHT22;35358;49.342;8.802;2022-08-01T00:36:50;21.10;99.90
49465;DHT22;35358;49.342;8.802;2022-08-01T00:39:15;21.00;99.90
49465;DHT22;35358;49.342;8.802;2022-08-01T00:41:41;21.10;99.90
49465;DHT22;35358;49.342;8.802;2022-08-01T00:44:06;21.00;99.90
49465;DHT22;35358;49.342;8.802;2022-08-01T00:46:32;21.00;99.90
49465;DHT22;35358;49.342;8.802;2022-08-01T00:49:00;21.00;99.90
49465;DHT22;35358;49.342;8.802;2022-08-01T00:51:26;21.00;99.90
49465;DHT22;35358;49.342;8.802;2022-08-01T00:53:55;21.10;99.90
49465;DHT22;35358;49.342;8.802;2022-08-01T00:56:24;20.90;99.90
49465;DHT22;35358;49.342;8.802;2022-08-01T00:58:55;20.80;99.90
49465;DHT22;35358;49.342;8.802;2022-08-01T01:01:23;20.70;99.90
49465;DHT22;35358;49.342;8.802;2022-08-01T01:03:51;20.70;99.90
49465;DHT22;35358;49.342;8.802;2022-08-01T01:09:10;20.80;99.90
49465;DHT22;35358;49.342;8.802;2022-08-01T01:14:21;20.70;99.90
49465;DHT22;35358;49.342;8.802;2022-08-01T01:16:51;20.60;99.90
49465;DHT22;35358;49.342;8.802;2022-08-01T01:19:23;20.60;99.90
49465;DHT22;35358;49.342;8.802;2022-08-01T01:30:37;20.60;99.90
49465;DHT22;35358;49.342;8.802;2022-08-01T01:33:06;20.70;99.90
49465;DHT22;35358;49.342;8.802;2022-08-01T01:35:38;20.70;99.90
49465;DHT22;35358;49.342;8.802;2022-08-01T01:38:25;20.70;99.90
49465;DHT22;35358;49.342;8.802;2022-08-01T01:40:52;20.90;99.90
49465;DHT22;35358;49.342;8.802;2022-08-01T01:43:23;20.70;99.90
49465;DHT22;35358;49.342;8.802;2022-08-01T01:45:53;20.80;99.90
49465;DHT22;35358;49.342;8.802;2022-08-01T01:48:20;20.90;99.90
49465;DHT22;35358;49.342;8.802;2022-08-01T01:50:49;20.90;99.90
49465;DHT22;35358;49.342;8.802;2022-08-01T01:53:21;20.80;99.90
49465;DHT22;35358;49.342;8.802;2022-08-01T01:55:55;20.80;99.90
49465;DHT22;35358;49.342;8.802;2022-08-01T01:58:25;20.80;99.90
49465;DHT22;35358;49.342;8.802;2022-08-01T02:00:56;20.80;99.90
49465;DHT22;35358;49.342;8.802;2022-08-01T02:03:24;20.70;99.90
49465;DHT22;35358;49.342;8.802;2022-08-01T02:05:53;20.70;99.90
49465;DHT22;35358;49.342;8.802;2022-08-01T02:08:22;20.70;99.90
49465;DHT22;35358;49.342;8.802;2022-08-01T02:10:51;20.60;99.90
49465;DHT22;35358;49.342;8.802;2022-08-01T02:13:37;20.60;99.90
49465;DHT22;35358;49.342;8.802;2022-08-01T02:16:04;20.60;99.90
49465;DHT22;35358;49.342;8.802;2022-08-01T02:18:32;20.50;99.90
49465;DHT22;35358;49.342;8.802;2022-08-01T02:20:59;20.60;99.90
49465;DHT22;35358;49.342;8.802;2022-08-01T02:23:32;20.70;99.90
49465;DHT22;35358;49.342;8.802;2022-08-01T02:26:00;20.70;99.90
49465;DHT22;35358;49.342;8.802;2022-08-01T02:28:33;20.70;99.90
49465;DHT22;35358;49.342;8.802;2022-08-01T02:31:03;20.60;99.90
49465;DHT22;35358;49.342;8.802;2022-08-01T02:33:41;20.60;99.90
49465;DHT22;35358;49.342;8.802;2022-08-01T02:36:08;20.50;99.90
49465;DHT22;35358;49.342;8.802;2022-08-01T02:38:40;20.60;99.90
49465;DHT22;35358;49.342;8.802;2022-08-01T02:41:11;20.50;99.90
49465;DHT22;35358;49.342;8.802;2022-08-01T02:43:43;20.40;99.90
49465;DHT22;35358;49.342;8.802;2022-08-01T02:46:20;20.20;99.90
49465;DHT22;35358;49.342;8.802;2022-08-01T02:48:47;20.20;99.90
49465;DHT22;35358;49.342;8.802;2022-08-01T02:51:15;20.00;99.90
49465;DHT22;35358;49.342;8.802;2022-08-01T02:53:44;20.10;99.90
49465;DHT22;35358;49.342;8.802;2022-08-01T02:56:11;20.10;99.90
49465;DHT22;35358;49.342;8.802;2022-08-01T02:58:38;20.00;99.90
49465;DHT22;35358;49.342;8.802;2022-08-01T03:01:08;19.80;99.90
49465;DHT22;35358;49.342;8.802;2022-08-01T03:03:37;19.90;99.90
49465;DHT22;35358;49.342;8.802;2022-08-01T03:06:06;19.90;99.90
49465;DHT22;35358;49.342;8.802;2022-08-01T03:08:37;19.90;99.90
49465;DHT22;35358;49.342;8.802;2022-08-01T03:11:04;19.80;99.90
49465;DHT22;35358;49.342;8.802;2022-08-01T03:13:35;19.90;99.90
49465;DHT22;35358;49.342;8.802;2022-08-01T03:16:02;19.80;99.90
49465;DHT22;35358;49.342;8.802;2022-08-01T03:18:29;19.80;99.90
49465;DHT22;35358;49.342;8.802;2022-08-01T03:20:57;19.70;99.90
49465;DHT22;35358;49.342;8.802;2022-08-01T03:23:26;19.60;99.90
49465;DHT22;35358;49.342;8.802;2022-08-01T03:25:53;19.60;99.90
49465;DHT22;35358;49.342;8.802;2022-08-01T03:28:21;19.60;99.90
49465;DHT22;35358;49.342;8.802;2022-08-01T03:30:52;19.50;99.90
49465;DHT22;35358;49.342;8.802;2022-08-01T03:33:21;19.50;99.90
49465;DHT22;35358;49.342;8.802;2022-08-01T03:35:53;19.40;99.90
49465;DHT22;35358;49.342;8.802;2022-08-01T03:38:23;19.50;99.90
49465;DHT22;35358;49.342;8.802;2022-08-01T03:41:16;19.50;99.90
49465;DHT22;35358;49.342;8.802;2022-08-01T03:44:03;19.60;99.90
49465;DHT22;35358;49.342;8.802;2022-08-01T03:46:40;19.60;99.90
49465;DHT22;35358;49.342;8.802;2022-08-01T03:49:22;19.50;99.90
49465;DHT22;35358;49.342;8.802;2022-08-01T03:51:49;19.70;99.90
49465;DHT22;35358;49.342;8.802;2022-08-01T03:54:21;19.60;99.90
49465;DHT22;35358;49.342;8.802;2022-08-01T03:56:51;19.50;99.90
49465;DHT22;35358;49.342;8.802;2022-08-01T03:59:20;19.60;99.90
49465;DHT22;35358;49.342;8.802;2022-08-01T04:01:49;19.60;99.90
49465;DHT22;35358;49.342;8.802;2022-08-01T04:04:15;19.50;99.90
49465;DHT22;35358;49.342;8.802;2022-08-01T04:06:41;19.50;99.90
49465;DHT22;35358;49.342;8.802;2022-08-01T04:09:09;19.60;99.90
49465;DHT22;35358;49.342;8.802;2022-08-01T04:11:38;19.50;99.90
49465;DHT22;35358;49.342;8.802;2022-08-01T04:14:03;19.40;99.90
49465;DHT22;35358;49.342;8.802;2022-08-01T04:16:29;19.00;99.90
49465;DHT22;35358;49.342;8.802;2022-08-01T04:18:57;19.00;99.90
49465;DHT22;35358;49.342;8.802;2022-08-01T04:21:25;18.90;99.90
49465;DHT22;35358;49.342;8.802;2022-08-01T04:23:58;18.90;99.90
49465;DHT22;35358;49.342;8.802;2022-08-01T04:26:25;18.90;99.90
49465;DHT22;35358;49.342;8.802;2022-08-01T04:28:54;19.00;99.90
49465;DHT22;35358;49.342;8.802;2022-08-01T04:31:20;18.90;99.90
49465;DHT22;35358;49.342;8.802;2022-08-01T04:33:49;18.80;99.90
49465;DHT22;35358;49.342;8.802;2022-08-01T04:36:19;18.90;99.90
49465;DHT22;35358;49.342;8.802;2022-08-01T04:38:48;19.00;99.90
49465;DHT22;35358;49.342;8.802;2022-08-01T04:41:16;19.10;99.90
49465;DHT22;35358;49.342;8.802;2022-08-01T04:43:44;18.80;99.90
49465;DHT22;35358;49.342;8.802;2022-08-01T04:46:13;18.80;99.90
49465;DHT22;35358;49.342;8.802;2022-08-01T04:48:42;18.80;99.90
49465;DHT22;35358;49.342;8.802;2022-08-01T04:51:17;18.80;99.90
49465;DHT22;35358;49.342;8.802;2022-08-01T04:53:46;19.00;99.90
49465;DHT22;35358;49.342;8.802;2022-08-01T04:56:12;18.90;99.90
49465;DHT22;35358;49.342;8.802;2022-08-01T04:58:39;18.90;99.90
49465;DHT22;35358;49.342;8.802;2022-08-01T05:01:06;18.90;99.90
49465;DHT22;35358;49.342;8.802;2022-08-01T05:03:32;18.90;99.90
49465;DHT22;35358;49.342;8.802;2022-08-01T05:06:00;19.10;99.90
49465;DHT22;35358;49.342;8.802;2022-08-01T05:08:25;19.10;99.90
49465;DHT22;35358;49.342;8.802;2022-08-01T05:10:51;19.10;99.90
49465;DHT22;35358;49.342;8.802;2022-08-01T05:13:18;19.00;99.90
49465;DHT22;35358;49.342;8.802;2022-08-01T05:15:44;19.00;99.90
49465;DHT22;35358;49.342;8.802;2022-08-01T05:18:09;18.90;99.90
49465;DHT22;35358;49.342;8.802;2022-08-01T05:20:37;19.10;99.90
49465;DHT22;35358;49.342;8.802;2022-08-01T05:23:04;19.20;99.90
49465;DHT22;35358;49.342;8.802;2022-08-01T05:25:32;19.20;99.90
49465;DHT22;35358;49.342;8.802;2022-08-01T05:28:00;19.40;99.90
49465;DHT22;35358;49.342;8.802;2022-08-01T05:30:28;19.40;99.90
49465;DHT22;35358;49.342;8.802;2022-08-01T05:32:54;19.50;99.90
49465;DHT22;35358;49.342;8.802;2022-08-01T05:35:19;19.60;99.90
49465;DHT22;35358;49.342;8.802;2022-08-01T05:37:45;19.70;99.90
49465;DHT22;35358;49.342;8.802;2022-08-01T05:40:13;19.80;99.90
49465;DHT22;35358;49.342;8.802;2022-08-01T05:42:41;19.80;99.90
49465;DHT22;35358;49.342;8.802;2022-08-01T05:45:09;19.90;99.90
49465;DHT22;35358;49.342;8.802;2022-08-01T05:47:35;19.90;99.90
49465;DHT22;35358;49.342;8.802;2022-08-01T05:50:06;20.00;99.90
49465;DHT22;35358;49.342;8.802;2022-08-01T05:52:36;19.80;99.90
49465;DHT22;35358;49.342;8.802;2022-08-01T05:55:02;19.90;99.90
49465;DHT22;35358;49.342;8.802;2022-08-01T05:57:28;19.80;99.90
49465;DHT22;35358;49.342;8.802;2022-08-01T05:59:53;19.70;99.90
49465;DHT22;35358;49.342;8.802;2022-08-01T06:02:19;19.80;99.90
49465;DHT22;35358;49.342;8.802;2022-08-01T06:04:44;19.80;99.90
49465;DHT22;35358;49.342;8.802;2022-08-01T06:07:12;19.80;99.90
49465;DHT22;35358;49.342;8.802;2022-08-01T06:09:40;20.00;99.90
49465;DHT22;35358;49.342;8.802;2022-08-01T06:12:05;20.10;99.90
49465;DHT22;35358;49.342;8.802;2022-08-01T06:14:31;20.20;99.90
49465;DHT22;35358;49.342;8.802;2022-08-01T06:16:59;20.20;99.90
49465;DHT22;35358;49.342;8.802;2022-08-01T06:19:25;20.10;99.90
49465;DHT22;35358;49.342;8.802;2022-08-01T06:21:51;20.10;99.90
49465;DHT22;35358;49.342;8.802;2022-08-01T06:24:19;20.30;99.90
49465;DHT22;35358;49.342;8.802;2022-08-01T06:26:45;20.40;99.90
49465;DHT22;35358;49.342;8.802;2022-08-01T06:29:13;20.50;99.90
49465;DHT22;35358;49.342;8.802;2022-08-01T06:31:38;20.70;99.90
49465;DHT22;35358;49.342;8.802;2022-08-01T06:34:06;20.80;99.90
49465;DHT22;35358;49.342;8.802;2022-08-01T06:36:32;20.80;99.90
49465;DHT22;35358;49.342;8.802;2022-08-01T06:38:57;20.80;99.90
49465;DHT22;35358;49.342;8.802;2022-08-01T06:41:23;20.80;99.90
49465;DHT22;35358;49.342;8.802;2022-08-01T06:43:48;20.90;99.90
49465;DHT22;35358;49.342;8.802;2022-08-01T06:46:14;21.00;99.90
49465;DHT22;35358;49.342;8.802;2022-08-01T06:48:40;21.10;99.90
49465;DHT22;35358;49.342;8.802;2022-08-01T06:51:06;21.30;99.90
49465;DHT22;35358;49.342;8.802;2022-08-01T06:53:38;21.50;99.90
49465;DHT22;35358;49.342;8.802;2022-08-01T06:56:07;21.60;99.90
49465;DHT22;35358;49.342;8.802;2022-08-01T06:58:34;21.70;99.90
49465;DHT22;35358;49.342;8.802;2022-08-01T07:01:05;21.70;99.90
49465;DHT22;35358;49.342;8.802;2022-08-01T07:03:35;21.70;99.90
49465;DHT22;35358;49.342;8.802;2022-08-01T07:06:01;21.70;99.90
49465;DHT22;35358;49.342;8.802;2022-08-01T07:08:27;21.90;99.90
49465;DHT22;35358;49.342;8.802;2022-08-01T07:10:52;22.00;99.90
49465;DHT22;35358;49.342;8.802;2022-08-01T07:13:18;22.10;99.90
49465;DHT22;35358;49.342;8.802;2022-08-01T07:15:48;22.20;99.90
49465;DHT22;35358;49.342;8.802;2022-08-01T07:18:14;22.30;99.90
49465;DHT22;35358;49.342;8.802;2022-08-01T07:20:42;22.30;99.90
49465;DHT22;35358;49.342;8.802;2022-08-01T07:23:08;22.40;99.90
49465;DHT22;35358;49.342;8.802;2022-08-01T07:25:34;22.40;99.90
49465;DHT22;35358;49.342;8.802;2022-08-01T07:28:01;22.40;99.90
49465;DHT22;35358;49.342;8.802;2022-08-01T07:30:29;22.30;99.90
49465;DHT22;35358;49.342;8.802;2022-08-01T07:33:00;22.30;99.90
49465;DHT22;35358;49.342;8.802;2022-08-01T07:35:28;22.40;99.90
49465;DHT22;35358;49.342;8.802;2022-08-01T07:37:56;22.50;99.90
49465;DHT22;35358;49.342;8.802;2022-08-01T07:40:21;22.60;99.90
49465;DHT22;35358;49.342;8.802;2022-08-01T07:42:47;22.70;99.90
49465;DHT22;35358;49.342;8.802;2022-08-01T07:45:13;22.80;99.90
49465;DHT22;35358;49.342;8.802;2022-08-01T07:47:42;22.80;99.90
49465;DHT22;35358;49.342;8.802;2022-08-01T07:50:08;22.80;99.90
49465;DHT22;35358;49.342;8.802;2022-08-01T07:52:38;22.90;99.90
49465;DHT22;35358;49.342;8.802;2022-08-01T07:55:07;22.90;99.90
49465;DHT22;35358;49.342;8.802;2022-08-01T07:57:33;23.00;99.90
49465;DHT22;35358;49.342;8.802;2022-08-01T07:59:58;23.00;99.90
49465;DHT22;35358;49.342;8.802;2022-08-01T08:02:26;23.10;99.90
49465;DHT22;35358;49.342;8.802;2022-08-01T08:04:54;23.30;99.90
49465;DHT22;35358;49.342;8.802;2022-08-01T08:07:20;23.20;99.90
49465;DHT22;35358;49.342;8.802;2022-08-01T08:09:47;23.40;99.90
49465;DHT22;35358;49.342;8.802;2022-08-01T08:12:13;23.40;99.90
49465;DHT22;35358;49.342;8.802;2022-08-01T08:14:39;23.60;99.90
49465;DHT22;35358;49.342;8.802;2022-08-01T08:17:05;23.50;99.90
49465;DHT22;35358;49.342;8.802;2022-08-01T08:19:31;23.70;99.90
49465;DHT22;35358;49.342;8.802;2022-08-01T08:22:01;24.00;99.90
49465;DHT22;35358;49.342;8.802;2022-08-01T08:24:28;23.80;99.90
49465;DHT22;35358;49.342;8.802;2022-08-01T08:26:59;23.80;99.90
49465;DHT22;35358;49.342;8.802;2022-08-01T08:29:25;24.00;99.90
49465;DHT22;35358;49.342;8.802;2022-08-01T08:31:56;23.90;99.90
49465;DHT22;35358;49.342;8.802;2022-08-01T08:34:23;23.80;99.90
49465;DHT22;35358;49.342;8.802;2022-08-01T08:36:49;24.00;99.90
49465;DHT22;35358;49.342;8.802;2022-08-01T08:39:15;24.00;99.90
49465;DHT22;35358;49.342;8.802;2022-08-01T08:41:44;24.00;99.90
49465;DHT22;35358;49.342;8.802;2022-08-01T08:44:10;24.00;99.90
49465;DHT22;35358;49.342;8.802;2022-08-01T08:46:41;24.10;99.90
49465;DHT22;35358;49.342;8.802;2022-08-01T08:49:08;24.20;99.90
49465;DHT22;35358;49.342;8.802;2022-08-01T08:51:35;24.40;99.90
49465;DHT22;35358;49.342;8.802;2022-08-01T08:54:06;24.60;99.90
49465;DHT22;35358;49.342;8.802;2022-08-01T08:56:34;24.60;99.90
49465;DHT22;35358;49.342;8.802;2022-08-01T08:59:01;24.60;99.90
49465;DHT22;35358;49.342;8.802;2022-08-01T09:01:27;24.50;99.90
49465;DHT22;35358;49.342;8.802;2022-08-01T09:03:53;24.50;99.90
49465;DHT22;35358;49.342;8.802;2022-08-01T09:06:19;24.70;99.90
49465;DHT22;35358;49.342;8.802;2022-08-01T09:08:46;24.80;99.90
49465;DHT22;35358;49.342;8.802;2022-08-01T09:11:14;24.70;99.90
49465;DHT22;35358;49.342;8.802;2022-08-01T09:13:45;24.70;99.90
49465;DHT22;35358;49.342;8.802;2022-08-01T09:16:31;24.70;99.90
49465;DHT22;35358;49.342;8.802;2022-08-01T09:19:14;24.80;99.90
49465;DHT22;35358;49.342;8.802;2022-08-01T09:21:56;24.90;99.90
49465;DHT22;35358;49.342;8.802;2022-08-01T09:24:23;25.00;99.90
49465;DHT22;35358;49.342;8.802;2022-08-01T09:26:49;25.00;99.90
49465;DHT22;35358;49.342;8.802;2022-08-01T09:29:20;25.00;99.90
49465;DHT22;35358;49.342;8.802;2022-08-01T09:31:46;24.90;99.90
49465;DHT22;35358;49.342;8.802;2022-08-01T09:34:12;25.00;99.90
49465;DHT22;35358;49.342;8.802;2022-08-01T09:39:18;25.20;99.90
49465;DHT22;35358;49.342;8.802;2022-08-01T09:41:45;25.30;99.90
49465;DHT22;35358;49.342;8.802;2022-08-01T09:44:11;25.40;99.90
49465;DHT22;35358;49.342;8.802;2022-08-01T09:46:55;25.50;99.90
49465;DHT22;35358;49.342;8.802;2022-08-01T09:49:30;25.50;99.90
49465;DHT22;35358;49.342;8.802;2022-08-01T09:52:09;25.80;99.90
49465;DHT22;35358;49.342;8.802;2022-08-01T09:54:37;25.60;99.90
49465;DHT22;35358;49.342;8.802;2022-08-01T09:57:17;25.70;99.90
49465;DHT22;35358;49.342;8.802;2022-08-01T09:59:48;25.60;99.90
49465;DHT22;35358;49.342;8.802;2022-08-01T10:02:30;25.80;99.90
49465;DHT22;35358;49.342;8.802;2022-08-01T10:04:57;25.90;99.90
49465;DHT22;35358;49.342;8.802;2022-08-01T10:07:23;25.90;99.90
49465;DHT22;35358;49.342;8.802;2022-08-01T10:09:49;26.10;99.90
49465;DHT22;35358;49.342;8.802;2022-08-01T10:12:21;26.10;99.90
49465;DHT22;35358;49.342;8.802;2022-08-01T10:14:50;26.10;99.90
49465;DHT22;35358;49.342;8.802;2022-08-01T10:17:23;26.00;99.90
49465;DHT22;35358;49.342;8.802;2022-08-01T10:19:50;26.10;99.90
49465;DHT22;35358;49.342;8.802;2022-08-01T10:22:23;26.10;99.90
49465;DHT22;35358;49.342;8.802;2022-08-01T10:24:55;26.00;99.90
49465;DHT22;35358;49.342;8.802;2022-08-01T10:27:21;26.00;99.90
49465;DHT22;35358;49.342;8.802;2022-08-01T10:29:55;26.00;99.90
49465;DHT22;35358;49.342;8.802;2022-08-01T10:32:24;26.10;99.90
49465;DHT22;35358;49.342;8.802;2022-08-01T10:34:49;26.20;99.90
49465;DHT22;35358;49.342;8.802;2022-08-01T10:37:18;26.40;99.90
49465;DHT22;35358;49.342;8.802;2022-08-01T10:39:44;26.40;99.90
49465;DHT22;35358;49.342;8.802;2022-08-01T10:42:11;26.40;99.90
49465;DHT22;35358;49.342;8.802;2022-08-01T10:44:40;26.10;99.90
49465;DHT22;35358;49.342;8.802;2022-08-01T10:47:11;26.30;99.90
49465;DHT22;35358;49.342;8.802;2022-08-01T10:50:01;26.20;99.90
49465;DHT22;35358;49.342;8.802;2022-08-01T10:52:30;26.10;99.90
49465;DHT22;35358;49.342;8.802;2022-08-01T10:55:06;26.20;99.90
49465;DHT22;35358;49.342;8.802;2022-08-01T10:57:46;26.20;99.90
49465;DHT22;35358;49.342;8.802;2022-08-01T11:00:21;26.10;99.90
49465;DHT22;35358;49.342;8.802;2022-08-01T11:03:01;26.30;99.90
49465;DHT22;35358;49.342;8.802;2022-08-01T11:05:31;26.40;99.90
49465;DHT22;35358;49.342;8.802;2022-08-01T11:08:21;26.50;99.90
49465;DHT22;35358;49.342;8.802;2022-08-01T11:10:47;26.20;99.90
49465;DHT22;35358;49.342;8.802;2022-08-01T11:13:13;26.10;99.90
49465;DHT22;35358;49.342;8.802;2022-08-01T11:15:41;26.20;99.90
49465;DHT22;35358;49.342;8.802;2022-08-01T11:20:59;26.30;99.90
49465;DHT22;35358;49.342;8.802;2022-08-01T11:23:27;26.20;99.90
49465;DHT22;35358;49.342;8.802;2022-08-01T11:28:30;26.20;99.90
49465;DHT22;35358;49.342;8.802;2022-08-01T11:38:46;26.10;99.90
49465;DHT22;35358;49.342;8.802;2022-08-01T11:41:23;26.10;99.90
49465;DHT22;35358;49.342;8.802;2022-08-01T11:44:10;26.10;99.90
49465;DHT22;35358;49.342;8.802;2022-08-01T11:46:57;26.00;99.90
49465;DHT22;35358;49.342;8.802;2022-08-01T11:52:09;26.00;99.90
49465;DHT22;35358;49.342;8.802;2022-08-01T11:59:48;26.30;99.90
49465;DHT22;35358;49.342;8.802;2022-08-01T12:02:28;26.30;99.90
49465;DHT22;35358;49.342;8.802;2022-08-01T12:07:28;26.70;99.90
49465;DHT22;35358;49.342;8.802;2022-08-01T12:12:28;26.80;99.90
49465;DHT22;35358;49.342;8.802;2022-08-01T12:14:59;27.00;99.90
49465;DHT22;35358;49.342;8.802;2022-08-01T12:17:49;27.00;99.90
49465;DHT22;35358;49.342;8.802;2022-08-01T12:20:19;27.30;99.90
49465;DHT22;35358;49.342;8.802;2022-08-01T12:22:45;27.80;99.90
49465;DHT22;35358;49.342;8.802;2022-08-01T12:25:18;28.00;99.90
49465;DHT22;35358;49.342;8.802;2022-08-01T12:27:45;27.90;99.90
49465;DHT22;35358;49.342;8.802;2022-08-01T12:30:17;28.20;99.90
49465;DHT22;35358;49.342;8.802;2022-08-01T12:32:48;28.00;99.90
49465;DHT22;35358;49.342;8.802;2022-08-01T12:35:21;27.60;99.90
49465;DHT22;35358;49.342;8.802;2022-08-01T12:42:53;27.80;99.90
49465;DHT22;35358;49.342;8.802;2022-08-01T12:45:28;28.20;99.90
49465;DHT22;35358;49.342;8.802;2022-08-01T12:47:58;27.90;99.90
49465;DHT22;35358;49.342;8.802;2022-08-01T12:50:28;27.60;99.90
49465;DHT22;35358;49.342;8.802;2022-08-01T12:52:55;27.90;99.90
49465;DHT22;35358;49.342;8.802;2022-08-01T12:55:27;28.20;99.90
49465;DHT22;35358;49.342;8.802;2022-08-01T12:58:09;28.80;99.90
49465;DHT22;35358;49.342;8.802;2022-08-01T13:00:36;28.60;99.90
49465;DHT22;35358;49.342;8.802;2022-08-01T13:03:09;28.80;99.90
49465;DHT22;35358;49.342;8.802;2022-08-01T13:08:49;28.40;99.90
49465;DHT22;35358;49.342;8.802;2022-08-01T13:11:12;28.30;99.90
49465;DHT22;35358;49.342;8.802;2022-08-01T13:16:12;27.90;99.90
49465;DHT22;35358;49.342;8.802;2022-08-01T13:18:38;27.80;99.90
49465;DHT22;35358;49.342;8.802;2022-08-01T13:23:40;27.90;99.90
49465;DHT22;35358;49.342;8.802;2022-08-01T13:26:06;28.20;99.90
49465;DHT22;35358;49.342;8.802;2022-08-01T13:28:33;28.30;99.90
49465;DHT22;35358;49.342;8.802;2022-08-01T13:31:06;28.40;99.90
49465;DHT22;35358;49.342;8.802;2022-08-01T13:33:42;28.20;99.90
49465;DHT22;35358;49.342;8.802;2022-08-01T13:36:09;28.60;99.90
49465;DHT22;35358;49.342;8.802;2022-08-01T13:38:34;28.80;99.90
49465;DHT22;35358;49.342;8.802;2022-08-01T13:41:18;28.20;99.90
49465;DHT22;35358;49.342;8.802;2022-08-01T13:43:44;28.00;99.90
49465;DHT22;35358;49.342;8.802;2022-08-01T13:46:12;28.20;99.90
49465;DHT22;35358;49.342;8.802;2022-08-01T13:48:40;28.00;99.90
49465;DHT22;35358;49.342;8.802;2022-08-01T13:51:05;28.50;99.90
49465;DHT22;35358;49.342;8.802;2022-08-01T13:53:31;29.20;99.90
49465;DHT22;35358;49.342;8.802;2022-08-01T13:55:57;29.90;99.90
49465;DHT22;35358;49.342;8.802;2022-08-01T13:58:25;29.80;99.90
49465;DHT22;35358;49.342;8.802;2022-08-01T14:00:50;29.90;99.90
49465;DHT22;35358;49.342;8.802;2022-08-01T14:03:16;29.70;99.90
49465;DHT22;35358;49.342;8.802;2022-08-01T14:05:43;29.50;99.90
49465;DHT22;35358;49.342;8.802;2022-08-01T14:08:11;29.10;99.90
49465;DHT22;35358;49.342;8.802;2022-08-01T14:10:39;28.50;99.90
49465;DHT22;35358;49.342;8.802;2022-08-01T14:13:07;28.40;99.90
49465;DHT22;35358;49.342;8.802;2022-08-01T14:15:33;28.30;99.90
49465;DHT22;35358;49.342;8.802;2022-08-01T14:17:58;28.10;99.90
49465;DHT22;35358;49.342;8.802;2022-08-01T14:20:26;28.00;99.90
49465;DHT22;35358;49.342;8.802;2022-08-01T14:22:54;28.00;99.90
49465;DHT22;35358;49.342;8.802;2022-08-01T14:25:20;28.10;99.90
49465;DHT22;35358;49.342;8.802;2022-08-01T14:27:48;28.30;99.90
49465;DHT22;35358;49.342;8.802;2022-08-01T14:30:14;28.50;99.90
49465;DHT22;35358;49.342;8.802;2022-08-01T14:32:42;28.60;99.90
49465;DHT22;35358;49.342;8.802;2022-08-01T14:35:08;29.20;99.90
49465;DHT22;35358;49.342;8.802;2022-08-01T14:37:33;29.30;99.90
49465;DHT22;35358;49.342;8.802;2022-08-01T14:40:00;29.10;99.90
49465;DHT22;35358;49.342;8.802;2022-08-01T14:42:29;28.90;99.90
49465;DHT22;35358;49.342;8.802;2022-08-01T14:44:55;28.70;99.90
49465;DHT22;35358;49.342;8.802;2022-08-01T14:47:21;28.50;99.90
49465;DHT22;35358;49.342;8.802;2022-08-01T14:49:51;28.70;99.90
49465;DHT22;35358;49.342;8.802;2022-08-01T14:52:17;28.70;99.90
49465;DHT22;35358;49.342;8.802;2022-08-01T14:54:43;28.50;99.90
49465;DHT22;35358;49.342;8.802;2022-08-01T14:57:08;28.30;99.90
49465;DHT22;35358;49.342;8.802;2022-08-01T14:59:37;28.10;99.90
49465;DHT22;35358;49.342;8.802;2022-08-01T15:02:03;28.00;99.90
49465;DHT22;35358;49.342;8.802;2022-08-01T15:04:28;27.90;99.90
49465;DHT22;35358;49.342;8.802;2022-08-01T15:06:55;28.00;99.90
49465;DHT22;35358;49.342;8.802;2022-08-01T15:09:22;28.00;99.90
49465;DHT22;35358;49.342;8.802;2022-08-01T15:11:52;28.00;99.90
49465;DHT22;35358;49.342;8.802;2022-08-01T15:14:17;27.90;99.90
49465;DHT22;35358;49.342;8.802;2022-08-01T15:17:02;27.80;99.90
49465;DHT22;35358;49.342;8.802;2022-08-01T15:19:30;27.90;99.90
49465;DHT22;35358;49.342;8.802;2022-08-01T15:21:58;27.90;99.90
49465;DHT22;35358;49.342;8.802;2022-08-01T15:24:24;27.70;99.90
49465;DHT22;35358;49.342;8.802;2022-08-01T15:26:49;27.70;99.90
49465;DHT22;35358;49.342;8.802;2022-08-01T15:29:17;27.70;99.90
49465;DHT22;35358;49.342;8.802;2022-08-01T15:31:43;27.70;99.90
49465;DHT22;35358;49.342;8.802;2022-08-01T15:34:08;27.60;99.90
49465;DHT22;35358;49.342;8.802;2022-08-01T15:36:34;27.60;99.90
49465;DHT22;35358;49.342;8.802;2022-08-01T15:39:02;27.50;99.90
49465;DHT22;35358;49.342;8.802;2022-08-01T15:41:28;27.50;99.90
49465;DHT22;35358;49.342;8.802;2022-08-01T15:43:53;27.40;99.90
49465;DHT22;35358;49.342;8.802;2022-08-01T15:46:24;27.40;99.90
49465;DHT22;35358;49.342;8.802;2022-08-01T15:48:52;27.50;99.90
49465;DHT22;35358;49.342;8.802;2022-08-01T15:51:20;27.40;99.90
49465;DHT22;35358;49.342;8.802;2022-08-01T15:53:46;27.40;99.90
49465;DHT22;35358;49.342;8.802;2022-08-01T15:56:12;27.40;99.90
49465;DHT22;35358;49.342;8.802;2022-08-01T15:58:42;27.50;99.90
49465;DHT22;35358;49.342;8.802;2022-08-01T16:01:08;27.50;99.90
49465;DHT22;35358;49.342;8.802;2022-08-01T16:03:33;27.50;99.90
49465;DHT22;35358;49.342;8.802;2022-08-01T16:05:59;27.50;99.90
49465;DHT22;35358;49.342;8.802;2022-08-01T16:08:25;27.40;99.90
49465;DHT22;35358;49.342;8.802;2022-08-01T16:10:50;27.40;99.90
49465;DHT22;35358;49.342;8.802;2022-08-01T16:13:16;27.30;99.90
49465;DHT22;35358;49.342;8.802;2022-08-01T16:15:41;27.10;99.90
49465;DHT22;35358;49.342;8.802;2022-08-01T16:18:09;27.20;99.90
49465;DHT22;35358;49.342;8.802;2022-08-01T16:20:39;27.20;99.90
49465;DHT22;35358;49.342;8.802;2022-08-01T16:23:05;27.20;99.90
49465;DHT22;35358;49.342;8.802;2022-08-01T16:25:30;27.20;99.90
49465;DHT22;35358;49.342;8.802;2022-08-01T16:27:56;27.20;99.90
49465;DHT22;35358;49.342;8.802;2022-08-01T16:30:21;27.20;99.90
49465;DHT22;35358;49.342;8.802;2022-08-01T16:32:47;27.10;99.90
49465;DHT22;35358;49.342;8.802;2022-08-01T16:35:13;27.10;99.90